KFTW

Fort Worth Meacham International Airport

Fort Worth, Texas, USA
KFTW 242326Z 2500/2524 18006KT P6SM SCT060 FM250900 18007KT 4SM BR SCT015 SCT040 FM251400 19010KT P6SM SCT050
Issued Valid From Valid To
Sep-24 @ 23:26 UTC
(3 hours ago)
Sep-25 @ 00:00 UTC
(2 hours ago)
Sep-26 @ 00:00 UTC
(in 22 hours)
Sep-25 @ 00:00 to Sep-25 @ 09:00
KFTW 242326Z 2500/2524 18006KT P6SM SCT060
Wind Visibility Clouds
180° at 6 knots Greater than 6 miles
  • Scattered at 6,000' AGL
From Sep-25 @ 09:00 to Sep-25 @ 14:00
FM250900 18007KT 4SM BR SCT015 SCT040
Wind Visibility Clouds Conditions
180° at 7 knots 4 miles
  • Scattered at 1,500' AGL
  • Scattered at 4,000' AGL
  • Mist
From Sep-25 @ 14:00 to Sep-26 @ 00:00
FM251400 19010KT P6SM SCT050
Wind Visibility Clouds
190° at 10 knots Greater than 6 miles
  • Scattered at 5,000' AGL
KFTW 242326Z 2500/2524 18006KT P6SM SCT060 FM250900 18007KT 4SM BR SCT015 SCT040 FM251400 19010KT P6SM SCT050
Issued Sep-24 @ 23:26 UTC
(3 hours ago)
Valid From Sep-25 @ 00:00 UTC
(2 hours ago)
Valid To Sep-26 @ 00:00 UTC
(in 22 hours)
Sep-25 @ 00:00 - Sep-25 @ 09:00
Wind Visibility
180° at 6 knots Greater than 6 miles
Clouds
  • Scattered at 6,000' AGL
From Sep-25 @ 09:00 - Sep-25 @ 14:00
Wind Visibility
180° at 7 knots 4 miles
Clouds
  • Scattered at 1,500' AGL
  • Scattered at 4,000' AGL
Conditions
  • Mist
From Sep-25 @ 14:00 - Sep-26 @ 00:00
Wind Visibility
190° at 10 knots Greater than 6 miles
Clouds
  • Scattered at 5,000' AGL